Time;durP1;ratioP1;P1;durP2;ratioP2;P2;SDS_P1;SDS_P2;PMS_P1;PMS_P2;Temp;Humidity;BMP_temperature;BMP_pressure;BME280_temperature;BME280_humidity;BME280_pressure;Samples;Min_cycle;Max_cycle;Signal;HPM_P1;HPM_P2
2023/07/07 00:01:31;;;;;;;54.33;50.85;;;22.00;96.80;;;;;;5027830;28;20038;-75
2023/07/07 00:03:57;;;;;;;52.15;49.08;;;21.90;97.20;;;;;;5012856;28;20360;-76
2023/07/07 00:06:23;;;;;;;51.90;48.95;;;21.90;97.50;;;;;;5012863;28;20041;-75
2023/07/07 00:08:49;;;;;;;50.67;47.67;;;21.90;97.60;;;;;;5013160;28;20352;-76
2023/07/07 00:11:15;;;;;;;52.15;49.20;;;21.90;97.70;;;;;;5012762;28;20022;-76
2023/07/07 00:13:41;;;;;;;51.53;48.53;;;22.00;97.70;;;;;;5012847;28;20025;-76
2023/07/07 00:16:07;;;;;;;53.78;50.85;;;22.00;97.80;;;;;;5027389;28;20045;-76
2023/07/07 00:18:33;;;;;;;50.10;46.92;;;21.90;97.90;;;;;;5012973;28;20034;-76
2023/07/07 00:21:00;;;;;;;45.70;42.72;;;21.90;97.90;;;;;;5012718;28;20041;-75
2023/07/07 00:23:27;;;;;;;42.85;40.22;;;21.90;98.00;;;;;;5044800;28;20037;-76
2023/07/07 00:26:00;;;;;;;43.20;40.60;;;21.80;98.10;;;;;;5043921;28;20029;-76
2023/07/07 00:28:26;;;;;;;41.30;38.58;;;21.70;98.20;;;;;;5044400;28;20022;-76
2023/07/07 00:30:52;;;;;;;44.00;40.92;;;21.70;98.30;;;;;;5011817;28;20406;-75
2023/07/07 00:33:18;;;;;;;40.45;38.15;;;21.70;98.50;;;;;;5011302;28;20038;-76
2023/07/07 00:35:48;;;;;;;44.65;41.95;;;21.60;98.60;;;;;;5012306;28;20049;-76
2023/07/07 00:38:14;;;;;;;40.05;37.35;;;21.60;99.00;;;;;;5044545;28;20026;-76
2023/07/07 00:40:41;;;;;;;40.35;37.88;;;21.40;99.20;;;;;;5044225;28;20022;-76
2023/07/07 00:43:14;;;;;;;41.13;38.72;;;21.40;99.30;;;;;;5044550;28;20395;-76
2023/07/07 00:45:40;;;;;;;41.17;38.63;;;21.50;99.50;;;;;;5043150;28;20033;-75
2023/07/07 00:48:09;;;;;;;39.30;36.88;;;21.50;99.70;;;;;;5012371;28;20033;-76
2023/07/07 00:50:43;;;;;;;38.05;35.47;;;21.40;99.90;;;;;;5010895;28;20038;-75
2023/07/07 00:53:09;;;;;;;34.22;32.08;;;21.30;99.90;;;;;;5027041;28;20029;-76
2023/07/07 00:55:47;;;;;;;32.65;30.67;;;21.20;99.90;;;;;;5012226;28;20034;-75
2023/07/07 00:58:15;;;;;;;35.22;33.00;;;21.10;99.90;;;;;;5026416;28;20045;-75
2023/07/07 01:00:42;;;;;;;34.97;32.70;;;21.10;99.90;;;;;;5026636;28;20161;-76
2023/07/07 01:03:16;;;;;;;31.73;29.73;;;21.10;99.90;;;;;;5027437;28;20030;-76
2023/07/07 01:05:42;;;;;;;30.77;28.48;;;21.10;99.90;;;;;;5026795;28;20033;-75
2023/07/07 01:08:09;;;;;;;32.08;30.08;;;21.10;99.90;;;;;;5027677;28;20034;-76
2023/07/07 01:10:35;;;;;;;32.05;30.00;;;21.20;99.90;;;;;;5027196;28;20037;-76
2023/07/07 01:13:01;;;;;;;33.15;31.05;;;21.20;99.90;;;;;;5012320;28;20513;-75
2023/07/07 01:15:28;;;;;;;33.45;31.40;;;21.20;99.90;;;;;;5026500;28;20030;-76
2023/07/07 01:18:03;;;;;;;33.28;31.10;;;21.10;99.90;;;;;;5027481;28;20479;-75
2023/07/07 01:20:33;;;;;;;29.90;27.95;;;21.00;99.90;;;;;;5011977;28;20853;-75
2023/07/07 01:23:37;;;;;;;31.42;29.48;;;21.00;99.90;;;;;;5044303;28;20034;-75
2023/07/07 01:26:26;;;;;;;29.77;27.40;;;21.00;99.90;;;;;;5043840;28;20037;-76
2023/07/07 01:28:53;;;;;;;29.08;26.77;;;21.00;99.90;;;;;;5011863;28;20022;-76
2023/07/07 01:31:20;;;;;;;34.40;31.98;;;20.90;99.90;;;;;;5011729;28;20044;-75
2023/07/07 01:33:46;;;;;;;29.35;27.23;;;20.80;99.90;;;;;;5027277;28;20479;-75
2023/07/07 01:36:13;;;;;;;28.02;26.02;;;20.70;99.90;;;;;;5027106;28;20513;-75
2023/07/07 01:38:44;;;;;;;26.00;24.25;;;20.60;99.90;;;;;;5047976;28;20029;-76
2023/07/07 01:41:37;;;;;;;29.13;27.17;;;20.50;99.90;;;;;;5047623;28;20382;-76
2023/07/07 01:44:03;;;;;;;26.33;24.27;;;20.50;99.90;;;;;;5047414;28;20017;-76
2023/07/07 01:46:53;;;;;;;29.05;26.92;;;20.50;99.90;;;;;;5013551;28;20038;-76
2023/07/07 01:49:26;;;;;;;30.45;28.35;;;20.40;99.90;;;;;;5014206;28;20046;-76
2023/07/07 01:52:17;;;;;;;25.15;23.25;;;20.40;99.90;;;;;;4996404;28;20053;-75
2023/07/07 01:54:46;;;;;;;26.23;24.42;;;20.50;99.90;;;;;;4974090;28;20472;-76
2023/07/07 01:57:12;;;;;;;22.05;20.30;;;20.50;99.90;;;;;;4958149;28;20472;-76
2023/07/07 01:59:40;;;;;;;23.02;21.38;;;20.50;99.90;;;;;;4973100;28;20112;-76
2023/07/07 02:02:06;;;;;;;26.30;24.40;;;20.50;99.90;;;;;;4921651;28;20031;-76
2023/07/07 02:04:32;;;;;;;23.80;22.10;;;20.40;99.90;;;;;;4952921;28;20031;-75
2023/07/07 02:06:58;;;;;;;21.38;19.63;;;20.30;99.90;;;;;;4956044;28;20062;-76
2023/07/07 02:09:26;;;;;;;18.95;16.63;;;20.30;99.90;;;;;;4960898;28;20056;-76
2023/07/07 02:11:52;;;;;;;17.05;15.75;;;20.20;99.90;;;;;;4937679;29;20043;-75
2023/07/07 02:14:18;;;;;;;16.42;15.02;;;20.30;99.90;;;;;;4949883;29;20088;-75
2023/07/07 02:16:44;;;;;;;15.80;14.40;;;20.40;99.90;;;;;;4952727;28;20035;-76
2023/07/07 02:19:10;;;;;;;17.80;16.10;;;20.40;99.90;;;;;;4937118;29;20047;-75
2023/07/07 02:21:36;;;;;;;15.05;13.80;;;20.40;99.90;;;;;;4952921;28;20040;-76
2023/07/07 02:24:02;;;;;;;16.00;14.80;;;20.30;99.90;;;;;;4955792;28;20119;-76
2023/07/07 02:26:29;;;;;;;23.13;21.23;;;20.20;99.90;;;;;;4961463;28;20051;-76
2023/07/07 02:28:55;;;;;;;16.52;15.00;;;20.30;99.90;;;;;;4952780;29;20046;-76
2023/07/07 02:31:24;;;;;;;17.00;15.40;;;20.20;99.90;;;;;;4965487;28;20038;-76
2023/07/07 02:33:50;;;;;;;16.60;14.93;;;20.20;99.90;;;;;;4994027;28;20035;-76
2023/07/07 02:36:18;;;;;;;16.52;15.23;;;20.10;99.90;;;;;;4993938;28;20379;-76
2023/07/07 02:38:45;;;;;;;20.40;18.85;;;20.20;99.90;;;;;;4995157;28;20022;-75
2023/07/07 02:41:11;;;;;;;21.75;19.85;;;20.20;99.90;;;;;;5026564;28;20030;-75
2023/07/07 02:43:37;;;;;;;21.08;19.38;;;20.20;99.90;;;;;;5009993;28;20026;-75
2023/07/07 02:46:03;;;;;;;23.65;21.90;;;20.10;99.90;;;;;;5025981;28;20042;-76
2023/07/07 02:48:29;;;;;;;19.52;17.77;;;20.10;99.90;;;;;;4994529;28;20057;-76
2023/07/07 02:51:00;;;;;;;19.38;17.55;;;20.10;99.90;;;;;;4994590;28;20047;-76
2023/07/07 02:53:28;;;;;;;20.80;18.92;;;20.10;99.90;;;;;;5009893;28;20022;-76
2023/07/07 02:55:55;;;;;;;20.42;19.02;;;20.10;99.90;;;;;;5009430;28;20035;-76
2023/07/07 02:58:21;;;;;;;25.95;23.77;;;20.10;99.90;;;;;;5014083;28;20022;-75
2023/07/07 03:00:48;;;;;;;25.02;23.40;;;20.10;99.90;;;;;;5007597;28;20023;-76
2023/07/07 03:03:14;;;;;;;18.15;16.60;;;20.00;99.90;;;;;;4994714;28;20034;-76
2023/07/07 03:05:40;;;;;;;17.55;16.15;;;20.00;99.90;;;;;;4994593;28;20023;-75
2023/07/07 03:08:06;;;;;;;16.00;14.60;;;19.90;99.90;;;;;;5009805;28;20388;-75
2023/07/07 03:10:34;;;;;;;15.70;14.02;;;19.90;99.90;;;;;;5008996;28;20046;-75
2023/07/07 03:13:00;;;;;;;15.75;14.48;;;19.90;99.90;;;;;;4994630;28;20126;-75
2023/07/07 03:15:39;;;;;;;17.60;16.20;;;19.90;99.90;;;;;;5012099;28;20033;-76
2023/07/07 03:18:08;;;;;;;18.15;16.67;;;19.90;99.90;;;;;;5014111;28;20025;-75
2023/07/07 03:20:35;;;;;;;18.13;16.25;;;20.00;99.90;;;;;;5013765;28;20033;-76
2023/07/07 03:23:01;;;;;;;17.45;15.90;;;19.90;99.90;;;;;;5029297;28;20387;-75
2023/07/07 03:25:27;;;;;;;16.90;15.68;;;19.80;99.90;;;;;;5028618;28;20038;-76
2023/07/07 03:27:53;;;;;;;16.80;15.20;;;19.80;99.90;;;;;;5029299;28;20033;-76
2023/07/07 03:30:19;;;;;;;16.13;14.43;;;19.80;99.90;;;;;;5028399;28;20038;-75
2023/07/07 03:32:45;;;;;;;19.50;18.05;;;19.70;99.90;;;;;;5012503;28;20045;-76
2023/07/07 03:35:12;;;;;;;16.75;14.32;;;19.70;99.90;;;;;;5013430;28;20037;-76
2023/07/07 03:37:38;;;;;;;15.90;14.50;;;19.70;99.90;;;;;;4993583;28;20399;-75
2023/07/07 03:40:06;;;;;;;16.92;15.35;;;19.60;99.90;;;;;;4973318;28;20023;-76
2023/07/07 03:42:33;;;;;;;22.60;20.85;;;19.50;99.90;;;;;;5010589;28;20045;-76
2023/07/07 03:44:59;;;;;;;20.63;19.13;;;19.50;99.90;;;;;;5028912;28;20375;-76
2023/07/07 03:47:25;;;;;;;26.88;24.98;;;19.50;99.90;;;;;;5027557;28;20521;-76
2023/07/07 03:49:51;;;;;;;23.27;21.48;;;19.50;99.90;;;;;;4992419;28;20046;-76
2023/07/07 03:52:18;;;;;;;19.55;18.10;;;19.40;99.90;;;;;;5010979;28;20555;-76
2023/07/07 03:54:44;;;;;;;15.70;14.18;;;19.30;99.90;;;;;;5028366;28;20026;-76
2023/07/07 03:57:13;;;;;;;14.07;12.75;;;19.40;99.90;;;;;;5013329;28;20033;-75
2023/07/07 03:59:39;;;;;;;16.27;14.82;;;19.30;99.90;;;;;;5027396;28;20030;-75
2023/07/07 04:02:05;;;;;;;16.33;14.88;;;19.30;99.90;;;;;;5011702;28;20178;-76
2023/07/07 04:04:32;;;;;;;14.20;13.10;;;19.30;99.90;;;;;;5012186;28;20026;-75
2023/07/07 04:06:58;;;;;;;15.23;13.60;;;19.30;99.90;;;;;;5013289;28;20475;-75
2023/07/07 04:09:24;;;;;;;14.18;12.93;;;19.30;99.90;;;;;;5011825;28;20022;-76
2023/07/07 04:11:50;;;;;;;14.98;13.63;;;19.20;99.90;;;;;;5011785;28;20041;-76
2023/07/07 04:14:17;;;;;;;14.68;13.48;;;19.20;99.90;;;;;;5013167;28;20034;-75
2023/07/07 04:16:43;;;;;;;15.70;13.27;;;19.20;99.90;;;;;;5011357;28;20030;-76
2023/07/07 04:19:10;;;;;;;15.30;14.10;;;19.10;99.90;;;;;;5012069;28;20376;-76
2023/07/07 04:21:36;;;;;;;14.52;13.32;;;19.20;99.90;;;;;;5013148;28;20387;-76
2023/07/07 04:24:02;;;;;;;15.70;14.30;;;19.20;99.90;;;;;;5011569;28;20022;-75
2023/07/07 04:26:29;;;;;;;14.82;13.52;;;19.30;99.90;;;;;;5012729;28;20041;-76
2023/07/07 04:28:57;;;;;;;14.63;13.13;;;19.30;99.90;;;;;;5012981;28;20352;-75
2023/07/07 04:31:24;;;;;;;15.57;14.38;;;19.40;99.90;;;;;;5011187;28;20488;-76
2023/07/07 04:33:50;;;;;;;15.98;14.68;;;19.40;99.90;;;;;;5011616;28;20030;-76
2023/07/07 04:36:16;;;;;;;15.50;14.20;;;19.40;99.90;;;;;;5006204;28;20019;-75
2023/07/07 04:38:44;;;;;;;16.48;15.07;;;19.40;99.90;;;;;;5007933;28;20030;-76
2023/07/07 04:41:17;;;;;;;14.98;13.88;;;19.40;99.90;;;;;;5007959;28;20106;-76
2023/07/07 04:43:48;;;;;;;16.42;14.77;;;19.40;99.90;;;;;;4993174;28;20492;-76
2023/07/07 04:46:17;;;;;;;17.58;16.27;;;19.30;99.90;;;;;;4992657;28;20034;-75
2023/07/07 04:48:43;;;;;;;16.63;15.00;;;19.40;99.90;;;;;;4997347;28;20030;-76
2023/07/07 04:51:10;;;;;;;15.95;14.55;;;19.30;99.90;;;;;;4972089;28;20057;-76
2023/07/07 04:53:36;;;;;;;16.55;14.95;;;19.20;99.90;;;;;;4972121;28;20027;-75
2023/07/07 04:56:10;;;;;;;14.95;13.70;;;19.30;99.90;;;;;;4973517;28;20393;-76
2023/07/07 04:58:36;;;;;;;16.75;15.38;;;19.30;99.90;;;;;;4984881;28;20026;-76
2023/07/07 05:01:19;;;;;;;16.90;15.60;;;19.40;99.90;;;;;;5010727;28;20038;-75
2023/07/07 05:03:48;;;;;;;17.05;15.55;;;19.40;99.90;;;;;;5012441;28;20379;-76
2023/07/07 05:06:14;;;;;;;14.55;13.25;;;19.40;99.90;;;;;;5011023;28;20018;-75
2023/07/07 05:08:41;;;;;;;14.38;13.27;;;19.40;99.90;;;;;;4995382;28;20038;-76
2023/07/07 05:11:10;;;;;;;17.13;15.73;;;19.50;99.90;;;;;;5012768;28;20499;-75
2023/07/07 05:13:36;;;;;;;18.42;17.00;;;19.50;99.90;;;;;;5016503;28;20406;-75
2023/07/07 05:16:07;;;;;;;18.67;17.17;;;19.70;99.90;;;;;;5014828;28;20033;-75
2023/07/07 05:18:33;;;;;;;21.45;19.55;;;19.80;99.90;;;;;;5015156;28;20105;-75
2023/07/07 05:20:59;;;;;;;21.77;20.23;;;20.00;99.90;;;;;;5014843;28;20033;-74
2023/07/07 05:23:25;;;;;;;23.73;22.08;;;20.00;99.90;;;;;;5016236;28;20034;-75
2023/07/07 05:25:52;;;;;;;24.80;23.02;;;20.20;99.90;;;;;;5015117;28;20034;-75
2023/07/07 05:28:18;;;;;;;33.70;31.40;;;20.30;99.90;;;;;;5015078;28;20022;-74
2023/07/07 05:30:44;;;;;;;41.53;38.88;;;20.40;99.90;;;;;;5014358;28;20105;-75
2023/07/07 05:33:10;;;;;;;51.10;48.25;;;20.60;99.90;;;;;;5016008;28;20026;-75
2023/07/07 05:35:44;;;;;;;63.58;60.08;;;20.70;99.90;;;;;;5013076;28;20030;-75
2023/07/07 05:38:11;;;;;;;61.00;57.45;;;20.80;99.90;;;;;;5010485;28;20033;-74
2023/07/07 05:40:39;;;;;;;65.03;61.45;;;21.00;99.90;;;;;;4996406;28;20038;-77
2023/07/07 05:43:05;;;;;;;75.45;71.38;;;21.20;99.90;;;;;;5011725;28;20041;-75
2023/07/07 05:45:32;;;;;;;83.88;79.55;;;21.30;99.90;;;;;;4995738;28;20030;-74
2023/07/07 05:47:58;;;;;;;86.75;82.22;;;21.40;99.90;;;;;;4996143;28;20026;-75
2023/07/07 05:50:25;;;;;;;88.80;84.15;;;21.60;99.90;;;;;;4995597;28;20049;-75
2023/07/07 05:52:52;;;;;;;92.13;87.25;;;21.70;99.90;;;;;;4996216;28;20031;-73
2023/07/07 05:55:25;;;;;;;81.28;76.97;;;21.80;99.90;;;;;;4994867;28;20027;-75
2023/07/07 05:57:51;;;;;;;69.82;66.03;;;21.90;99.90;;;;;;4994981;28;20038;-74
2023/07/07 06:00:18;;;;;;;67.43;63.83;;;22.10;99.90;;;;;;5015062;28;20379;-75
2023/07/07 06:02:44;;;;;;;69.50;65.32;;;22.20;99.90;;;;;;5015481;28;20022;-75
2023/07/07 06:05:10;;;;;;;69.85;66.07;;;22.30;99.90;;;;;;5015117;28;20030;-75
2023/07/07 06:07:36;;;;;;;68.70;65.07;;;22.40;99.90;;;;;;5014221;28;20493;-74
2023/07/07 06:10:02;;;;;;;69.13;65.18;;;22.50;99.90;;;;;;5014035;28;20034;-75
2023/07/07 06:12:29;;;;;;;68.55;64.38;;;22.60;99.90;;;;;;5015286;28;20044;-75
2023/07/07 06:14:55;;;;;;;64.93;61.13;;;22.70;99.90;;;;;;5014260;28;20030;-74
2023/07/07 06:17:21;;;;;;;63.17;59.50;;;22.80;99.90;;;;;;5014889;28;20034;-75
2023/07/07 06:19:47;;;;;;;66.93;63.17;;;22.90;99.90;;;;;;5014956;28;20053;-75
2023/07/07 06:22:13;;;;;;;65.53;61.65;;;22.50;99.90;;;;;;5014381;28;20030;-75
2023/07/07 06:24:40;;;;;;;62.70;59.05;;;22.40;99.90;;;;;;5015212;28;20026;-75
2023/07/07 06:27:06;;;;;;;54.53;51.40;;;22.50;99.90;;;;;;5014940;28;20022;-75
2023/07/07 06:29:35;;;;;;;49.97;46.63;;;22.50;99.90;;;;;;5014094;28;20030;-75
2023/07/07 06:32:01;;;;;;;49.95;46.95;;;22.50;99.90;;;;;;5014828;28;20053;-75
2023/07/07 06:34:28;;;;;;;45.85;42.53;;;22.70;99.90;;;;;;5013525;28;20034;-75
2023/07/07 06:36:54;;;;;;;49.80;46.75;;;22.70;99.90;;;;;;5002059;28;20031;-74
2023/07/07 06:39:20;;;;;;;49.33;46.13;;;22.80;99.90;;;;;;4995392;28;20046;-75
2023/07/07 06:41:46;;;;;;;40.58;37.65;;;22.80;99.90;;;;;;4995114;28;20038;-75
2023/07/07 06:44:12;;;;;;;39.90;37.28;;;23.00;99.90;;;;;;4995294;28;20031;-74
2023/07/07 06:46:38;;;;;;;40.30;37.80;;;23.20;99.90;;;;;;5007587;28;20037;-75
2023/07/07 06:49:04;;;;;;;38.60;35.33;;;23.40;99.90;;;;;;5029402;28;20026;-75
2023/07/07 06:51:31;;;;;;;37.78;35.15;;;23.50;99.90;;;;;;5014574;28;20045;-75
2023/07/07 06:53:59;;;;;;;37.92;35.42;;;23.70;99.90;;;;;;5013403;28;20022;-77
2023/07/07 06:56:25;;;;;;;25.17;22.83;;;23.90;99.90;;;;;;5014509;28;20026;-75
2023/07/07 06:58:51;;;;;;;23.58;21.50;;;24.10;99.90;;;;;;5014482;28;20029;-73
2023/07/07 07:01:17;;;;;;;21.25;19.15;;;24.40;99.90;;;;;;5013940;28;20522;-75
2023/07/07 07:03:43;;;;;;;20.45;18.80;;;24.60;99.90;;;;;;5014020;28;20044;-75
2023/07/07 07:06:10;;;;;;;19.65;18.02;;;24.70;99.90;;;;;;5013277;28;20038;-75
2023/07/07 07:08:36;;;;;;;23.05;21.33;;;24.70;99.40;;;;;;5013110;28;20061;-75
2023/07/07 07:11:02;;;;;;;23.65;21.67;;;24.70;99.50;;;;;;5012957;28;20034;-74
2023/07/07 07:13:28;;;;;;;24.92;23.10;;;24.80;99.80;;;;;;5013165;28;20022;-75
2023/07/07 07:15:55;;;;;;;25.67;23.90;;;25.00;99.40;;;;;;5013943;28;20039;-74
2023/07/07 07:18:21;;;;;;;26.67;24.77;;;25.10;99.40;;;;;;5012588;28;20026;-74
2023/07/07 07:20:48;;;;;;;24.40;22.55;;;25.20;99.40;;;;;;5014151;28;20472;-75
2023/07/07 07:23:15;;;;;;;25.60;23.75;;;25.10;99.10;;;;;;5012873;28;20356;-75
2023/07/07 07:25:44;;;;;;;28.50;26.38;;;25.20;99.90;;;;;;5014527;28;20034;-75
2023/07/07 07:28:11;;;;;;;28.60;26.70;;;25.40;99.80;;;;;;5012922;28;20470;-75
2023/07/07 07:30:38;;;;;;;27.30;25.70;;;25.60;99.30;;;;;;5012200;28;20506;-75
2023/07/07 07:33:12;;;;;;;27.98;26.08;;;25.80;99.40;;;;;;5013423;28;20045;-74
2023/07/07 07:35:38;;;;;;;28.63;26.38;;;25.70;98.40;;;;;;5012533;28;20034;-74
2023/07/07 07:38:04;;;;;;;30.88;28.58;;;25.70;99.00;;;;;;5045583;28;20029;-74
2023/07/07 07:40:30;;;;;;;33.05;30.50;;;25.90;99.00;;;;;;5045466;28;20037;-74
2023/07/07 07:42:56;;;;;;;32.15;29.90;;;26.10;99.00;;;;;;5013612;28;20094;-74
2023/07/07 07:45:22;;;;;;;35.40;33.03;;;26.30;98.30;;;;;;5013375;28;20396;-75
2023/07/07 07:47:50;;;;;;;33.72;31.40;;;26.50;98.50;;;;;;5013122;28;20482;-75
2023/07/07 07:50:16;;;;;;;30.85;28.80;;;26.40;97.10;;;;;;5012336;28;20052;-74
2023/07/07 07:52:42;;;;;;;29.85;27.70;;;26.10;97.00;;;;;;5012166;28;20061;-74
2023/07/07 07:55:09;;;;;;;30.10;28.20;;;25.90;97.10;;;;;;5012265;28;20102;-74
2023/07/07 07:57:35;;;;;;;29.92;27.88;;;25.80;98.10;;;;;;5013466;28;20041;-74
2023/07/07 08:00:01;;;;;;;29.75;27.80;;;25.80;98.20;;;;;;5013348;28;20037;-74
2023/07/07 08:02:27;;;;;;;29.63;27.52;;;26.10;97.50;;;;;;5011311;28;20033;-74
2023/07/07 08:04:53;;;;;;;30.23;28.13;;;26.00;97.80;;;;;;5012274;28;20042;-74
2023/07/07 08:07:20;;;;;;;30.52;28.55;;;26.20;98.00;;;;;;5013264;28;20513;-75
2023/07/07 08:09:46;;;;;;;33.42;30.90;;;26.40;97.10;;;;;;5011860;28;20390;-74
2023/07/07 08:12:12;;;;;;;33.42;31.35;;;26.50;96.90;;;;;;5013080;28;20038;-74
2023/07/07 08:14:39;;;;;;;32.45;30.45;;;26.60;97.20;;;;;;5013505;28;20048;-74
2023/07/07 08:17:08;;;;;;;32.47;30.48;;;26.80;96.50;;;;;;5012322;28;20040;-74
2023/07/07 08:19:35;;;;;;;32.05;29.77;;;26.90;95.70;;;;;;5011879;28;20022;-74
2023/07/07 08:22:06;;;;;;;34.60;32.40;;;26.80;96.10;;;;;;5011759;28;20056;-74
2023/07/07 08:24:37;;;;;;;32.70;30.58;;;26.80;96.30;;;;;;5013036;28;20033;-74
2023/07/07 08:27:03;;;;;;;33.40;31.27;;;26.90;96.30;;;;;;5011890;28;20033;-74
2023/07/07 08:29:29;;;;;;;35.13;32.55;;;27.00;96.50;;;;;;4995405;28;20036;-74
2023/07/07 08:31:55;;;;;;;33.38;31.27;;;27.10;96.30;;;;;;5012254;28;20045;-74
2023/07/07 08:34:21;;;;;;;33.33;31.02;;;27.00;95.90;;;;;;5011640;28;20036;-75
2023/07/07 08:36:47;;;;;;;36.08;33.78;;;26.90;96.50;;;;;;5012750;28;20030;-74
2023/07/07 08:39:16;;;;;;;34.33;32.03;;;27.00;96.40;;;;;;5012696;28;20387;-74
2023/07/07 08:41:50;;;;;;;34.75;32.65;;;27.20;96.30;;;;;;5012683;28;20037;-74
2023/07/07 08:44:20;;;;;;;34.13;32.08;;;27.10;96.10;;;;;;5044187;28;20030;-74
2023/07/07 08:47:28;;;;;;;34.90;32.55;;;27.20;96.10;;;;;;5043178;28;20034;-74
2023/07/07 08:50:06;;;;;;;33.55;31.50;;;27.20;96.30;;;;;;4982317;28;20046;-74
2023/07/07 08:53:43;;;;;;;35.80;33.60;;;27.30;96.60;;;;;;4960767;28;20538;-74
2023/07/07 08:56:24;;;;;;;33.13;31.02;;;27.40;96.30;;;;;;4895193;29;20036;-74
2023/07/07 08:59:22;;;;;;;35.65;33.45;;;27.50;95.60;;;;;;4902615;29;20482;-74
2023/07/07 09:01:57;;;;;;;33.30;31.25;;;27.60;96.10;;;;;;4857073;29;20056;-74
2023/07/07 09:04:59;;;;;;;33.63;31.40;;;27.70;95.70;;;;;;4857720;29;20077;-74
2023/07/07 09:07:43;;;;;;;40.33;37.83;;;27.80;96.10;;;;;;4824118;29;20049;-74
2023/07/07 09:10:33;;;;;;;39.70;37.00;;;28.20;97.00;;;;;;4839689;29;20037;-74
2023/07/07 09:13:22;;;;;;;36.33;34.05;;;28.40;96.70;;;;;;4838884;29;20058;-74
2023/07/07 09:16:03;;;;;;;37.67;35.38;;;28.40;96.50;;;;;;4826196;29;20408;-74
2023/07/07 09:18:34;;;;;;;42.42;39.67;;;28.60;96.10;;;;;;4839076;29;20037;-75
2023/07/07 09:21:02;;;;;;;38.00;35.60;;;28.70;96.90;;;;;;4839200;29;20042;-74
2023/07/07 09:23:36;;;;;;;39.45;37.05;;;28.70;95.50;;;;;;4839537;29;20045;-74
2023/07/07 09:26:18;;;;;;;40.95;38.65;;;28.60;95.90;;;;;;4843125;29;20042;-74
2023/07/07 09:28:45;;;;;;;41.50;38.88;;;28.70;96.20;;;;;;4846610;29;20040;-75
2023/07/07 09:31:42;;;;;;;39.30;36.92;;;28.80;96.00;;;;;;4868799;29;20051;-75
2023/07/07 09:34:11;;;;;;;39.80;37.50;;;28.90;95.20;;;;;;4894862;29;20064;-74
2023/07/07 09:36:43;;;;;;;39.40;36.88;;;29.10;93.90;;;;;;4894639;29;20044;-74
2023/07/07 09:39:33;;;;;;;38.47;36.35;;;29.00;94.90;;;;;;4920776;29;20035;-74
2023/07/07 09:42:11;;;;;;;42.80;40.20;;;29.10;94.60;;;;;;4918778;29;20032;-75
2023/07/07 09:44:43;;;;;;;42.22;39.72;;;29.20;94.40;;;;;;4973820;28;20046;-75
2023/07/07 09:47:57;;;;;;;42.58;40.10;;;29.40;94.20;;;;;;4973839;28;20027;-74
2023/07/07 09:50:47;;;;;;;44.55;41.92;;;29.70;93.60;;;;;;4932199;29;20059;-74
2023/07/07 09:53:23;;;;;;;55.60;52.50;;;29.90;92.40;;;;;;4916753;29;20051;-74
2023/07/07 09:55:50;;;;;;;53.47;50.42;;;30.10;91.60;;;;;;4918674;29;20039;-74
2023/07/07 09:58:16;;;;;;;60.47;57.08;;;30.10;92.00;;;;;;4921228;29;20054;-74
2023/07/07 10:00:46;;;;;;;66.63;62.97;;;30.30;91.80;;;;;;4960016;28;20050;-74
2023/07/07 10:03:30;;;;;;;67.75;63.63;;;30.30;90.00;;;;;;4942652;28;20026;-75
2023/07/07 10:05:56;;;;;;;64.10;60.40;;;30.20;90.00;;;;;;4974201;28;20042;-75
2023/07/07 10:08:22;;;;;;;62.58;59.08;;;30.10;90.20;;;;;;4958182;28;20046;-74
2023/07/07 10:11:11;;;;;;;68.60;65.05;;;30.30;90.10;;;;;;4973822;28;20055;-74
2023/07/07 10:13:37;;;;;;;66.88;63.08;;;30.50;89.50;;;;;;4958541;28;20134;-74
2023/07/07 10:16:05;;;;;;;71.47;67.75;;;30.60;90.10;;;;;;4957662;28;20428;-74
2023/07/07 10:18:32;;;;;;;70.03;66.10;;;30.60;88.60;;;;;;4942119;28;20047;-75
2023/07/07 10:21:01;;;;;;;67.55;63.88;;;30.50;88.90;;;;;;4973893;28;20029;-74
2023/07/07 10:23:28;;;;;;;66.82;63.22;;;30.50;89.40;;;;;;4962161;28;20034;-75
2023/07/07 10:25:54;;;;;;;65.68;62.13;;;30.50;88.90;;;;;;5014858;28;20407;-75
2023/07/07 10:28:20;;;;;;;65.28;61.75;;;30.50;89.70;;;;;;5013988;28;20029;-75
2023/07/07 10:30:47;;;;;;;64.70;61.33;;;30.50;89.60;;;;;;5013433;28;20049;-75
2023/07/07 10:33:16;;;;;;;67.93;64.32;;;30.70;90.20;;;;;;5013794;28;20044;-75
2023/07/07 10:35:43;;;;;;;74.25;70.20;;;30.80;88.10;;;;;;5011880;28;20033;-74
2023/07/07 10:38:09;;;;;;;59.95;56.80;;;30.90;89.00;;;;;;5010516;28;20034;-75
2023/07/07 10:40:36;;;;;;;65.22;61.67;;;30.90;90.20;;;;;;5009944;28;20034;-74
2023/07/07 10:43:02;;;;;;;56.67;53.53;;;30.80;89.80;;;;;;5010364;28;20034;-76
2023/07/07 10:45:28;;;;;;;73.07;69.07;;;30.90;90.50;;;;;;5013486;28;20482;-75
2023/07/07 10:47:55;;;;;;;66.10;62.40;;;30.80;89.20;;;;;;5014625;28;20034;-74
2023/07/07 10:50:24;;;;;;;75.65;71.80;;;31.00;90.00;;;;;;5013317;28;20046;-75
2023/07/07 10:53:12;;;;;;;68.35;64.50;;;31.10;87.60;;;;;;5013569;28;20034;-74
2023/07/07 10:55:43;;;;;;;79.15;74.72;;;31.10;89.20;;;;;;5013351;28;20042;-74
2023/07/07 10:58:18;;;;;;;75.15;71.35;;;31.20;88.60;;;;;;5014508;28;20033;-74
2023/07/07 11:01:17;;;;;;;72.82;68.88;;;31.30;86.50;;;;;;5013871;28;20403;-74
2023/07/07 11:04:08;;;;;;;76.53;72.53;;;31.40;88.20;;;;;;5014288;28;20030;-74
2023/07/07 11:07:05;;;;;;;82.38;78.05;;;31.60;87.10;;;;;;5014280;28;20030;-74
2023/07/07 11:09:46;;;;;;;81.85;77.55;;;31.60;86.60;;;;;;5012741;28;20045;-74
2023/07/07 11:12:42;;;;;;;77.90;73.63;;;31.60;86.50;;;;;;5012897;28;20034;-74
2023/07/07 11:15:33;;;;;;;72.35;68.53;;;31.70;86.60;;;;;;5013759;28;20501;-74
2023/07/07 11:18:36;;;;;;;80.35;75.88;;;31.70;87.60;;;;;;5014289;28;20030;-75
2023/07/07 11:21:14;;;;;;;81.97;77.60;;;31.70;87.10;;;;;;5013964;28;20348;-74
2023/07/07 11:23:53;;;;;;;76.10;72.05;;;31.80;85.40;;;;;;5013803;28;20030;-75
2023/07/07 11:26:46;;;;;;;76.60;72.60;;;31.80;86.70;;;;;;5013948;28;20033;-75
2023/07/07 11:29:20;;;;;;;79.93;75.72;;;32.00;86.50;;;;;;5012725;28;20030;-74
2023/07/07 11:31:46;;;;;;;76.90;72.78;;;31.90;85.90;;;;;;5012045;28;20041;-75
2023/07/07 11:34:30;;;;;;;80.53;76.43;;;31.80;86.50;;;;;;5013958;28;20022;-74
2023/07/07 11:37:15;;;;;;;82.07;77.78;;;31.60;85.20;;;;;;5012480;28;20034;-74
2023/07/07 11:39:59;;;;;;;77.03;72.95;;;31.80;85.70;;;;;;5013434;28;20026;-74
2023/07/07 11:42:45;;;;;;;78.57;74.53;;;31.90;86.00;;;;;;5013484;28;20356;-75
2023/07/07 11:45:28;;;;;;;81.15;76.85;;;31.80;86.00;;;;;;5026215;28;20402;-74
2023/07/07 11:48:13;;;;;;;79.45;74.95;;;31.90;84.90;;;;;;5013518;28;20029;-74
2023/07/07 11:50:42;;;;;;;78.03;73.80;;;31.90;84.90;;;;;;5012115;28;20038;-74
2023/07/07 11:53:11;;;;;;;69.22;65.53;;;32.00;85.90;;;;;;5013137;28;20049;-75
2023/07/07 11:55:46;;;;;;;69.03;65.30;;;32.00;86.80;;;;;;5013456;28;20371;-74
2023/07/07 11:58:43;;;;;;;77.55;73.07;;;31.80;85.90;;;;;;5013314;28;20030;-77
2023/07/07 12:01:22;;;;;;;79.95;75.85;;;32.00;86.00;;;;;;5013008;28;20034;-74
2023/07/07 12:04:04;;;;;;;70.28;66.32;;;31.90;85.00;;;;;;5012080;28;20026;-74
2023/07/07 12:06:35;;;;;;;69.35;65.78;;;31.80;86.80;;;;;;4995429;28;20034;-74
2023/07/07 12:09:21;;;;;;;75.10;70.93;;;31.80;86.30;;;;;;5011793;28;20033;-74
2023/07/07 12:12:06;;;;;;;77.07;72.97;;;32.00;85.50;;;;;;5012057;28;20041;-75
2023/07/07 12:14:47;;;;;;;78.28;73.95;;;32.20;86.20;;;;;;5011876;28;20029;-74
2023/07/07 12:17:15;;;;;;;71.05;67.32;;;32.30;84.90;;;;;;5012679;28;20034;-75
2023/07/07 12:19:45;;;;;;;72.97;69.07;;;32.50;85.10;;;;;;5011682;28;20022;-74
2023/07/07 12:22:31;;;;;;;74.63;70.57;;;32.70;85.30;;;;;;5011198;28;20421;-75
2023/07/07 12:25:23;;;;;;;74.57;70.55;;;32.20;84.20;;;;;;5011906;28;20037;-74
2023/07/07 12:27:51;;;;;;;72.90;69.18;;;32.30;85.00;;;;;;5011775;28;20025;-74
2023/07/07 12:30:26;;;;;;;71.57;67.65;;;32.30;84.90;;;;;;5011282;28;20409;-74
2023/07/07 12:32:52;;;;;;;74.90;70.90;;;32.30;85.30;;;;;;5011598;28;20046;-74
2023/07/07 12:35:28;;;;;;;79.63;75.28;;;32.50;85.50;;;;;;5011815;28;20037;-74
2023/07/07 12:38:25;;;;;;;70.47;66.78;;;32.30;84.30;;;;;;5011421;28;20037;-74
2023/07/07 12:40:51;;;;;;;65.03;61.63;;;32.40;85.60;;;;;;5011651;28;20045;-75
2023/07/07 12:43:27;;;;;;;74.43;70.35;;;32.70;86.20;;;;;;5011531;28;20092;-75
2023/07/07 12:45:53;;;;;;;74.75;70.65;;;32.80;85.20;;;;;;5012299;28;20502;-75
2023/07/07 12:48:21;;;;;;;68.45;64.65;;;33.10;85.10;;;;;;5011280;28;20030;-75